AUA101 LOWW-LOWI
Flight info
| Callsign | AUA101 |
|---|---|
| Flight time | 0h 49m |
| Altitude | 30000 |
| Route | OSPEN DCT ABRUK DCT SETAL DCT NANIT NANIT2A |
| Aircraft | A319/M-SDE3FGHIRWY/LB1 |
Departure
| Time | 2026-04-26 16:58 |
|---|---|
| Airport | Vienna International Airport (LOWW) |
Arrival
| Time | 2026-04-26 17:48 |
|---|---|
| Airport | Innsbruck Airport (LOWI) |
| Time | Latitude | Longitude | Altitude | Speed | Heading |
|---|---|---|---|---|---|
| 2026-04-26 16:38 | 48.11808 | 16.57039 | 622 ft | 0 kts | 206° |
| 2026-04-26 16:51 | 48.11810 | 16.57041 | 621 ft | 2 kts | 206° |
| 2026-04-26 16:51 | 48.11834 | 16.57057 | 620 ft | 4 kts | 201° |
| 2026-04-26 16:51 | 48.11859 | 16.57069 | 622 ft | 4 kts | 183° |
| 2026-04-26 16:51 | 48.11875 | 16.57067 | 619 ft | 4 kts | 147° |
| 2026-04-26 16:52 | 48.11882 | 16.57058 | 617 ft | 0 kts | 116° |
| 2026-04-26 16:54 | 48.11863 | 16.57116 | 609 ft | 10 kts | 116° |
| 2026-04-26 16:55 | 48.11849 | 16.57224 | 609 ft | 11 kts | 104° |
| 2026-04-26 16:55 | 48.11813 | 16.57331 | 611 ft | 12 kts | 129° |
| 2026-04-26 16:55 | 48.11735 | 16.57378 | 612 ft | 13 kts | 165° |
| 2026-04-26 16:55 | 48.11647 | 16.57414 | 611 ft | 14 kts | 165° |
| 2026-04-26 16:56 | 48.11443 | 16.57425 | 621 ft | 17 kts | 204° |
| 2026-04-26 16:56 | 48.11333 | 16.57346 | 616 ft | 18 kts | 206° |
| 2026-04-26 16:56 | 48.11220 | 16.57285 | 609 ft | 16 kts | 162° |
| 2026-04-26 16:57 | 48.11158 | 16.57431 | 609 ft | 18 kts | 115° |
| 2026-04-26 16:57 | 48.11100 | 16.57607 | 612 ft | 20 kts | 123° |
| 2026-04-26 16:57 | 48.10922 | 16.57522 | 609 ft | 15 kts | 265° |
| 2026-04-26 16:58 | 48.10996 | 16.57284 | 609 ft | 56 kts | 296° |
| 2026-04-26 16:58 | 48.11166 | 16.56762 | 615 ft | 108 kts | 296° |
| 2026-04-26 16:58 | 48.12304 | 16.53303 | 1399 ft | 177 kts | 287° |
| 2026-04-26 16:59 | 48.12154 | 16.51474 | 1947 ft | 192 kts | 239° |
| 2026-04-26 16:59 | 48.09836 | 16.48705 | 2786 ft | 240 kts | 212° |
| 2026-04-26 17:00 | 48.07853 | 16.46796 | 3831 ft | 259 kts | 215° |
| 2026-04-26 17:00 | 48.06528 | 16.45364 | 4662 ft | 264 kts | 217° |
| 2026-04-26 17:00 | 48.05537 | 16.44107 | 5135 ft | 277 kts | 223° |
| 2026-04-26 17:01 | 48.04098 | 16.42214 | 6261 ft | 274 kts | 220° |
| 2026-04-26 17:01 | 48.02708 | 16.40249 | 7325 ft | 276 kts | 226° |
| 2026-04-26 17:01 | 48.01385 | 16.38152 | 8317 ft | 280 kts | 227° |
| 2026-04-26 17:01 | 48.00066 | 16.35985 | 9277 ft | 284 kts | 228° |
| 2026-04-26 17:02 | 47.98735 | 16.33771 | 10138 ft | 292 kts | 228° |
| 2026-04-26 17:02 | 47.97322 | 16.31421 | 10532 ft | 316 kts | 228° |
| 2026-04-26 17:02 | 47.95791 | 16.28891 | 10861 ft | 340 kts | 228° |
| 2026-04-26 17:02 | 47.94168 | 16.26217 | 11444 ft | 352 kts | 228° |
| 2026-04-26 17:03 | 47.92505 | 16.23495 | 12204 ft | 358 kts | 228° |
| 2026-04-26 17:03 | 47.90813 | 16.20740 | 12979 ft | 362 kts | 227° |
| 2026-04-26 17:03 | 47.89100 | 16.17959 | 13738 ft | 367 kts | 227° |
| 2026-04-26 17:03 | 47.87364 | 16.15142 | 14464 ft | 371 kts | 227° |
| 2026-04-26 17:04 | 47.85609 | 16.12294 | 15183 ft | 375 kts | 227° |
| 2026-04-26 17:04 | 47.83837 | 16.09415 | 15881 ft | 379 kts | 227° |
| 2026-04-26 17:04 | 47.82047 | 16.06508 | 16577 ft | 383 kts | 227° |
| 2026-04-26 17:04 | 47.80236 | 16.03570 | 17249 ft | 387 kts | 227° |
| 2026-04-26 17:05 | 47.78409 | 16.00608 | 17899 ft | 391 kts | 227° |
| 2026-04-26 17:05 | 47.76585 | 15.97655 | 18514 ft | 395 kts | 227° |
| 2026-04-26 17:05 | 47.74689 | 15.94593 | 19140 ft | 399 kts | 227° |
| 2026-04-26 17:05 | 47.72824 | 15.91589 | 19739 ft | 403 kts | 227° |
| 2026-04-26 17:06 | 47.70906 | 15.88513 | 20288 ft | 408 kts | 227° |
| 2026-04-26 17:06 | 47.68972 | 15.85410 | 20896 ft | 410 kts | 227° |
| 2026-04-26 17:06 | 47.67027 | 15.82288 | 21456 ft | 414 kts | 227° |
| 2026-04-26 17:06 | 47.65064 | 15.79140 | 21958 ft | 417 kts | 227° |
| 2026-04-26 17:07 | 47.63080 | 15.75960 | 22421 ft | 422 kts | 227° |
| 2026-04-26 17:07 | 47.61079 | 15.72752 | 22908 ft | 425 kts | 227° |
| 2026-04-26 17:07 | 47.59064 | 15.69526 | 23422 ft | 427 kts | 227° |
| 2026-04-26 17:07 | 47.57131 | 15.66433 | 23873 ft | 430 kts | 227° |
| 2026-04-26 17:08 | 47.55197 | 15.63346 | 24282 ft | 433 kts | 227° |
| 2026-04-26 17:08 | 47.53285 | 15.60306 | 24685 ft | 436 kts | 227° |
| 2026-04-26 17:08 | 47.51199 | 15.56968 | 25107 ft | 439 kts | 229° |
| 2026-04-26 17:08 | 47.49378 | 15.53337 | 25493 ft | 442 kts | 238° |
| 2026-04-26 17:09 | 47.47975 | 15.49277 | 25871 ft | 445 kts | 248° |
| 2026-04-26 17:09 | 47.47304 | 15.46422 | 26180 ft | 445 kts | 254° |
| 2026-04-26 17:09 | 47.46617 | 15.42658 | 26510 ft | 447 kts | 256° |
| 2026-04-26 17:09 | 47.45821 | 15.38216 | 26897 ft | 449 kts | 255° |
| 2026-04-26 17:10 | 47.44956 | 15.33774 | 27271 ft | 451 kts | 253° |
| 2026-04-26 17:10 | 47.44204 | 15.30065 | 27586 ft | 453 kts | 253° |
| 2026-04-26 17:10 | 47.44062 | 15.29376 | 27651 ft | 453 kts | 253° |
| 2026-04-26 17:11 | 47.43136 | 15.24881 | 27990 ft | 456 kts | 253° |
| 2026-04-26 17:11 | 47.42217 | 15.20373 | 28310 ft | 459 kts | 253° |
| 2026-04-26 17:11 | 47.41307 | 15.15845 | 28626 ft | 461 kts | 253° |
| 2026-04-26 17:11 | 47.40403 | 15.11291 | 28935 ft | 464 kts | 253° |
| 2026-04-26 17:12 | 47.38594 | 15.02109 | 29545 ft | 468 kts | 254° |
| 2026-04-26 17:12 | 47.37686 | 14.97489 | 29846 ft | 469 kts | 254° |
| 2026-04-26 17:13 | 47.35876 | 14.88356 | 30008 ft | 463 kts | 253° |
| 2026-04-26 17:13 | 47.34962 | 14.83806 | 30015 ft | 463 kts | 253° |
| 2026-04-26 17:14 | 47.32225 | 14.70275 | 30017 ft | 466 kts | 253° |
| 2026-04-26 17:14 | 47.29455 | 14.56595 | 30002 ft | 464 kts | 253° |
| 2026-04-26 17:15 | 47.26671 | 14.42951 | 30021 ft | 463 kts | 253° |
| 2026-04-26 17:16 | 47.24813 | 14.33882 | 29995 ft | 463 kts | 253° |
| 2026-04-26 17:16 | 47.23603 | 14.24622 | 29994 ft | 462 kts | 268° |
| 2026-04-26 17:17 | 47.24170 | 14.15220 | 29991 ft | 462 kts | 278° |
| 2026-04-26 17:17 | 47.25038 | 14.05842 | 29986 ft | 463 kts | 277° |
| 2026-04-26 17:18 | 47.25882 | 13.96437 | 29981 ft | 464 kts | 277° |
| 2026-04-26 17:18 | 47.26719 | 13.87015 | 29983 ft | 465 kts | 277° |
| 2026-04-26 17:19 | 47.27967 | 13.72910 | 29983 ft | 466 kts | 277° |
| 2026-04-26 17:19 | 47.28803 | 13.63448 | 29989 ft | 466 kts | 277° |
| 2026-04-26 17:20 | 47.29494 | 13.55511 | 29999 ft | 466 kts | 277° |
| 2026-04-26 17:20 | 47.30428 | 13.44511 | 30005 ft | 465 kts | 277° |
| 2026-04-26 17:21 | 47.31238 | 13.35062 | 30018 ft | 464 kts | 277° |
| 2026-04-26 17:21 | 47.32040 | 13.25631 | 30011 ft | 463 kts | 277° |
| 2026-04-26 17:22 | 47.32830 | 13.16216 | 30022 ft | 462 kts | 277° |
| 2026-04-26 17:22 | 47.33603 | 13.06832 | 30022 ft | 460 kts | 277° |
| 2026-04-26 17:23 | 47.34367 | 12.97465 | 30000 ft | 460 kts | 277° |
| 2026-04-26 17:23 | 47.35131 | 12.88091 | 29984 ft | 461 kts | 277° |
| 2026-04-26 17:24 | 47.35884 | 12.78694 | 29994 ft | 461 kts | 276° |
| 2026-04-26 17:24 | 47.36624 | 12.69301 | 30000 ft | 461 kts | 276° |
| 2026-04-26 17:25 | 47.37358 | 12.59921 | 29987 ft | 461 kts | 276° |
| 2026-04-26 17:25 | 47.38087 | 12.50521 | 30005 ft | 462 kts | 276° |
| 2026-04-26 17:26 | 47.38817 | 12.41082 | 30006 ft | 462 kts | 276° |
| 2026-04-26 17:26 | 47.39539 | 12.31728 | 29967 ft | 463 kts | 277° |
| 2026-04-26 17:27 | 47.39949 | 12.27021 | 29007 ft | 461 kts | 277° |
| 2026-04-26 17:27 | 47.40393 | 12.22360 | 27784 ft | 456 kts | 278° |
| 2026-04-26 17:27 | 47.40851 | 12.17761 | 26579 ft | 450 kts | 278° |
| 2026-04-26 17:27 | 47.41303 | 12.13222 | 25390 ft | 444 kts | 278° |
| 2026-04-26 17:28 | 47.41745 | 12.08680 | 24542 ft | 452 kts | 278° |
| 2026-04-26 17:28 | 47.42182 | 12.04046 | 24209 ft | 458 kts | 278° |
| 2026-04-26 17:28 | 47.42610 | 11.99386 | 24010 ft | 458 kts | 277° |
| 2026-04-26 17:28 | 47.42727 | 11.94717 | 23998 ft | 448 kts | 268° |
| 2026-04-26 17:29 | 47.42907 | 11.90318 | 23930 ft | 415 kts | 284° |
| 2026-04-26 17:29 | 47.43566 | 11.87746 | 23847 ft | 396 kts | 300° |
| 2026-04-26 17:29 | 47.45975 | 11.84004 | 23677 ft | 364 kts | 326° |
| 2026-04-26 17:29 | 47.48075 | 11.82118 | 23545 ft | 343 kts | 331° |
| 2026-04-26 17:30 | 47.50170 | 11.80442 | 22554 ft | 348 kts | 336° |
| 2026-04-26 17:30 | 47.52546 | 11.79599 | 21396 ft | 358 kts | 358° |
| 2026-04-26 17:30 | 47.55031 | 11.80109 | 20222 ft | 367 kts | 19° |
| 2026-04-26 17:30 | 47.57316 | 11.81866 | 18958 ft | 376 kts | 33° |
| 2026-04-26 17:31 | 47.59516 | 11.84067 | 17543 ft | 387 kts | 34° |
| 2026-04-26 17:31 | 47.61766 | 11.86359 | 16075 ft | 397 kts | 34° |
| 2026-04-26 17:31 | 47.64052 | 11.88698 | 14918 ft | 400 kts | 34° |
| 2026-04-26 17:31 | 47.66335 | 11.91040 | 14344 ft | 399 kts | 34° |
| 2026-04-26 17:32 | 47.68530 | 11.93570 | 14118 ft | 400 kts | 45° |
| 2026-04-26 17:32 | 47.70157 | 11.96828 | 13988 ft | 399 kts | 62° |
| 2026-04-26 17:32 | 47.71133 | 12.00671 | 14009 ft | 400 kts | 77° |
| 2026-04-26 17:32 | 47.71442 | 12.04763 | 14007 ft | 400 kts | 91° |
| 2026-04-26 17:33 | 47.71054 | 12.08835 | 14013 ft | 398 kts | 105° |
| 2026-04-26 17:33 | 47.70024 | 12.12514 | 14008 ft | 399 kts | 120° |
| 2026-04-26 17:33 | 47.68351 | 12.15759 | 14008 ft | 397 kts | 135° |
| 2026-04-26 17:34 | 47.63643 | 12.19821 | 13924 ft | 395 kts | 165° |
| 2026-04-26 17:34 | 47.60938 | 12.20379 | 13670 ft | 392 kts | 180° |
| 2026-04-26 17:34 | 47.58241 | 12.19885 | 13419 ft | 391 kts | 195° |
| 2026-04-26 17:34 | 47.55720 | 12.18404 | 13168 ft | 391 kts | 209° |
| 2026-04-26 17:35 | 47.53536 | 12.16045 | 12917 ft | 388 kts | 224° |
| 2026-04-26 17:35 | 47.51836 | 12.12970 | 12664 ft | 386 kts | 238° |
| 2026-04-26 17:35 | 47.50716 | 12.09386 | 12415 ft | 384 kts | 252° |
| 2026-04-26 17:35 | 47.50071 | 12.05585 | 11983 ft | 378 kts | 255° |
| 2026-04-26 17:36 | 47.49105 | 12.01991 | 11314 ft | 374 kts | 242° |
| 2026-04-26 17:36 | 47.47638 | 11.98902 | 10965 ft | 355 kts | 228° |
| 2026-04-26 17:36 | 47.45880 | 11.96560 | 10832 ft | 327 kts | 216° |
| 2026-04-26 17:36 | 47.44022 | 11.94846 | 10699 ft | 304 kts | 211° |
| 2026-04-26 17:37 | 47.42248 | 11.93277 | 10372 ft | 293 kts | 211° |
| 2026-04-26 17:37 | 47.40500 | 11.91731 | 10120 ft | 293 kts | 211° |
| 2026-04-26 17:37 | 47.38751 | 11.90187 | 9865 ft | 291 kts | 211° |
| 2026-04-26 17:38 | 47.35317 | 11.87057 | 9598 ft | 290 kts | 218° |
| 2026-04-26 17:38 | 47.33902 | 11.84981 | 9475 ft | 287 kts | 233° |
| 2026-04-26 17:38 | 47.32897 | 11.82447 | 9363 ft | 286 kts | 248° |
| 2026-04-26 17:38 | 47.32243 | 11.79701 | 9247 ft | 289 kts | 251° |
| 2026-04-26 17:39 | 47.31602 | 11.76929 | 9092 ft | 279 kts | 251° |
| 2026-04-26 17:39 | 47.30993 | 11.74283 | 8929 ft | 266 kts | 251° |
| 2026-04-26 17:39 | 47.30413 | 11.71765 | 8757 ft | 253 kts | 251° |
| 2026-04-26 17:39 | 47.29861 | 11.69368 | 8570 ft | 241 kts | 251° |
| 2026-04-26 17:40 | 47.29339 | 11.67082 | 8400 ft | 231 kts | 253° |
| 2026-04-26 17:40 | 47.29210 | 11.66309 | 8337 ft | 229 kts | 262° |
| 2026-04-26 17:40 | 47.29142 | 11.62442 | 7954 ft | 224 kts | 270° |
| 2026-04-26 17:40 | 47.29138 | 11.60116 | 7548 ft | 231 kts | 270° |
| 2026-04-26 17:41 | 47.29074 | 11.57719 | 6928 ft | 238 kts | 263° |
| 2026-04-26 17:41 | 47.28803 | 11.55291 | 6288 ft | 243 kts | 259° |
| 2026-04-26 17:41 | 47.28461 | 11.52832 | 5636 ft | 246 kts | 258° |
| 2026-04-26 17:41 | 47.28128 | 11.50446 | 4991 ft | 240 kts | 258° |
| 2026-04-26 17:42 | 47.27800 | 11.48072 | 4455 ft | 231 kts | 259° |
| 2026-04-26 17:42 | 47.27486 | 11.45802 | 4024 ft | 220 kts | 259° |
| 2026-04-26 17:42 | 47.27025 | 11.43759 | 3713 ft | 201 kts | 240° |
| 2026-04-26 17:42 | 47.26534 | 11.42682 | 3696 ft | 182 kts | 235° |
| 2026-04-26 17:43 | 47.25618 | 11.40830 | 3703 ft | 157 kts | 234° |
| 2026-04-26 17:43 | 47.25197 | 11.40001 | 3709 ft | 150 kts | 234° |
| 2026-04-26 17:43 | 47.24696 | 11.38698 | 3690 ft | 144 kts | 260° |
| 2026-04-26 17:43 | 47.24531 | 11.36780 | 3717 ft | 140 kts | 268° |
| 2026-04-26 17:44 | 47.24487 | 11.35839 | 3716 ft | 139 kts | 268° |
| 2026-04-26 17:44 | 47.24431 | 11.34424 | 3714 ft | 138 kts | 268° |
| 2026-04-26 17:44 | 47.24374 | 11.33010 | 3716 ft | 138 kts | 266° |
| 2026-04-26 17:44 | 47.24310 | 11.31147 | 3710 ft | 138 kts | 269° |
| 2026-04-26 17:45 | 47.24272 | 11.30202 | 3732 ft | 138 kts | 269° |
| 2026-04-26 17:45 | 47.24200 | 11.28801 | 3710 ft | 137 kts | 268° |
| 2026-04-26 17:45 | 47.24123 | 11.27406 | 3717 ft | 137 kts | 270° |
| 2026-04-26 17:45 | 47.24102 | 11.26005 | 3582 ft | 136 kts | 281° |
| 2026-04-26 17:46 | 47.24616 | 11.24954 | 3369 ft | 129 kts | 336° |
| 2026-04-26 17:46 | 47.25488 | 11.24978 | 3094 ft | 131 kts | 28° |
| 2026-04-26 17:46 | 47.25866 | 11.26136 | 2523 ft | 137 kts | 93° |
| 2026-04-26 17:46 | 47.25763 | 11.27459 | 2507 ft | 130 kts | 96° |
| 2026-04-26 17:47 | 47.25622 | 11.28753 | 2411 ft | 128 kts | 98° |
| 2026-04-26 17:47 | 47.25562 | 11.29628 | 2310 ft | 127 kts | 91° |
| 2026-04-26 17:47 | 47.25688 | 11.31312 | 2192 ft | 125 kts | 78° |
| 2026-04-26 17:47 | 47.25822 | 11.32581 | 2034 ft | 124 kts | 81° |
| 2026-04-26 17:48 | 47.25959 | 11.33807 | 1906 ft | 112 kts | 81° |
| 2026-04-26 17:48 | 47.26062 | 11.34780 | 1904 ft | 80 kts | 81° |
| 2026-04-26 17:48 | 47.26107 | 11.35204 | 1904 ft | 11 kts | 83° |
| 2026-04-26 17:48 | 47.26057 | 11.35261 | 1904 ft | 10 kts | 173° |
| 2026-04-26 17:49 | 47.25983 | 11.35276 | 1904 ft | 11 kts | 172° |
| 2026-04-26 17:49 | 47.25917 | 11.35284 | 1904 ft | 6 kts | 193° |
| 2026-04-26 17:49 | 47.25905 | 11.35263 | 1898 ft | 0 kts | 244° |
| 2026-04-26 17:49 | 47.25904 | 11.35263 | 1898 ft | 0 kts | 244° |
| 2026-04-26 17:50 | 47.25902 | 11.35253 | 1901 ft | 2 kts | 249° |
| 2026-04-26 17:50 | 47.25893 | 11.35233 | 1899 ft | 3 kts | 216° |
| 2026-04-26 17:50 | 47.25872 | 11.35229 | 1904 ft | 4 kts | 181° |
| 2026-04-26 17:50 | 47.25846 | 11.35235 | 1896 ft | 4 kts | 171° |
| 2026-04-26 17:51 | 47.25839 | 11.35236 | 1899 ft | 0 kts | 171° |